createdAt,value
2023-04-09T00:01:05.196Z,7.98
2023-04-09T00:03:32.373Z,7.95
2023-04-09T00:06:00.632Z,7.94
2023-04-09T00:08:27.460Z,7.96
2023-04-09T00:10:54.401Z,7.93
2023-04-09T00:13:31.969Z,7.98
2023-04-09T00:16:05.919Z,7.95
2023-04-09T00:18:32.710Z,7.96
2023-04-09T00:21:00.973Z,7.93
2023-04-09T00:23:27.669Z,7.98
2023-04-09T00:25:54.485Z,7.98
2023-04-09T00:28:21.178Z,7.99
2023-04-09T00:30:47.902Z,7.99
2023-04-09T00:33:14.608Z,8.02
2023-04-09T00:35:41.472Z,8.00
2023-04-09T00:38:09.736Z,8.00
2023-04-09T00:40:36.575Z,8.00
2023-04-09T00:43:03.789Z,7.94
2023-04-09T00:45:30.685Z,8.03
2023-04-09T00:47:57.630Z,8.06
2023-04-09T00:50:24.535Z,8.05
2023-04-09T00:52:51.393Z,8.07
2023-04-09T00:55:21.320Z,8.04
2023-04-09T00:57:48.076Z,8.06
2023-04-09T01:00:15.373Z,8.09
2023-04-09T01:02:42.461Z,8.08
2023-04-09T01:05:10.557Z,8.08
2023-04-09T01:07:52.056Z,8.11
2023-04-09T01:10:28.307Z,8.08
2023-04-09T01:13:04.096Z,8.12
2023-04-09T01:15:34.917Z,8.11
2023-04-09T01:18:07.287Z,8.10
2023-04-09T01:20:38.676Z,8.06
2023-04-09T01:23:19.547Z,8.04
2023-04-09T01:26:01.813Z,8.07
2023-04-09T01:28:39.349Z,8.08
2023-04-09T01:31:11.064Z,8.06
2023-04-09T01:33:38.727Z,8.04
2023-04-09T01:36:07.255Z,8.03
2023-04-09T01:38:36.655Z,8.04
2023-04-09T01:41:04.462Z,7.99
2023-04-09T01:43:33.460Z,8.06
2023-04-09T01:46:02.542Z,8.00
2023-04-09T01:48:30.181Z,8.07
2023-04-09T01:50:57.670Z,8.06
2023-04-09T01:53:24.845Z,8.09
2023-04-09T01:55:51.577Z,8.11
2023-04-09T01:58:18.298Z,8.12
2023-04-09T02:00:47.966Z,8.14
2023-04-09T02:03:21.749Z,8.15
2023-04-09T02:05:56.008Z,8.17
2023-04-09T02:08:24.697Z,8.17
2023-04-09T02:10:54.634Z,8.15
2023-04-09T02:13:23.382Z,8.17
2023-04-09T02:15:51.523Z,8.17
2023-04-09T02:18:23.992Z,8.18
2023-04-09T02:20:52.384Z,8.17
2023-04-09T02:23:19.174Z,8.19
2023-04-09T02:25:46.047Z,8.20
2023-04-09T02:28:12.853Z,8.19
2023-04-09T02:30:39.557Z,8.19
2023-04-09T02:33:06.747Z,8.21
2023-04-09T02:35:34.904Z,8.19
2023-04-09T02:38:01.878Z,8.16
2023-04-09T02:40:28.796Z,8.18
2023-04-09T02:42:55.619Z,8.18
2023-04-09T02:45:22.275Z,8.14
2023-04-09T02:47:49.113Z,8.17
2023-04-09T02:50:15.946Z,8.17
2023-04-09T02:52:49.995Z,8.14
2023-04-09T02:55:19.249Z,8.13
2023-04-09T02:57:45.928Z,8.10
2023-04-09T03:00:13.542Z,8.13
2023-04-09T03:02:40.781Z,8.09
2023-04-09T03:05:08.185Z,8.09
2023-04-09T03:07:34.883Z,8.11
2023-04-09T03:10:03.385Z,8.05
2023-04-09T03:12:30.135Z,8.11
2023-04-09T03:14:56.803Z,8.12
2023-04-09T03:17:23.536Z,8.11
2023-04-09T03:19:50.472Z,8.09
2023-04-09T03:22:17.362Z,8.08
2023-04-09T03:24:44.306Z,8.06
2023-04-09T03:27:12.573Z,8.07
2023-04-09T03:29:39.387Z,8.05
2023-04-09T03:32:07.411Z,8.05
2023-04-09T03:34:34.154Z,8.03
2023-04-09T03:37:01.133Z,8.02
2023-04-09T03:39:30.525Z,8.02
2023-04-09T03:41:57.535Z,7.93
2023-04-09T03:44:27.064Z,7.99
2023-04-09T03:47:14.052Z,7.97
2023-04-09T03:49:40.775Z,7.97
2023-04-09T03:52:29.373Z,7.97
2023-04-09T03:55:03.594Z,7.96
2023-04-09T03:57:30.486Z,8.00
2023-04-09T03:59:59.584Z,8.01
2023-04-09T04:02:26.807Z,7.99
2023-04-09T04:04:59.656Z,7.97
2023-04-09T04:07:32.646Z,7.96
2023-04-09T04:10:06.874Z,7.95
2023-04-09T04:12:34.307Z,7.95
2023-04-09T04:15:10.351Z,7.93
2023-04-09T04:17:51.485Z,7.90
2023-04-09T04:20:39.021Z,7.92
2023-04-09T04:23:09.911Z,7.91
2023-04-09T04:25:42.834Z,7.92
2023-04-09T04:28:13.306Z,7.92
2023-04-09T04:30:43.531Z,7.97
2023-04-09T04:33:11.017Z,7.96
2023-04-09T04:35:53.308Z,7.90
2023-04-09T04:38:33.486Z,7.85
2023-04-09T04:41:04.070Z,7.82
2023-04-09T04:43:33.385Z,7.82
2023-04-09T04:46:02.418Z,7.81
2023-04-09T04:48:31.331Z,7.80
2023-04-09T04:50:59.486Z,7.78
2023-04-09T04:53:31.404Z,7.79
2023-04-09T04:56:02.757Z,7.76
2023-04-09T04:58:29.591Z,7.78
2023-04-09T05:00:59.218Z,7.79
2023-04-09T05:03:27.901Z,7.80
2023-04-09T05:06:13.959Z,7.84
2023-04-09T05:08:43.618Z,7.83
2023-04-09T05:11:11.879Z,7.81
2023-04-09T05:13:39.959Z,7.79
2023-04-09T05:16:16.250Z,7.77
2023-04-09T05:18:45.532Z,7.78
2023-04-09T05:21:12.371Z,7.78
2023-04-09T05:23:41.654Z,7.76
2023-04-09T05:26:08.495Z,7.78
2023-04-09T05:28:46.369Z,7.81
2023-04-09T05:31:17.459Z,7.84
2023-04-09T05:33:55.371Z,7.84
2023-04-09T05:36:31.619Z,7.87
2023-04-09T05:38:58.608Z,7.90
2023-04-09T05:41:25.330Z,7.88
2023-04-09T05:44:11.176Z,7.88
2023-04-09T05:46:39.513Z,7.86
2023-04-09T05:49:08.546Z,7.91
2023-04-09T05:51:36.790Z,7.90
2023-04-09T05:54:04.217Z,7.84
2023-04-09T05:56:34.684Z,7.93
2023-04-09T05:59:01.548Z,7.95
2023-04-09T06:01:28.300Z,7.95
2023-04-09T06:03:57.757Z,7.96
2023-04-09T06:06:26.475Z,7.98
2023-04-09T06:08:53.599Z,7.96
2023-04-09T06:11:20.317Z,7.99
2023-04-09T06:13:47.075Z,7.98
2023-04-09T06:16:13.933Z,7.99
2023-04-09T06:18:40.639Z,7.97
2023-04-09T06:21:08.844Z,7.99
2023-04-09T06:23:37.160Z,7.97
2023-04-09T06:26:03.887Z,7.98
2023-04-09T06:28:31.664Z,8.03
2023-04-09T06:30:59.055Z,8.07
2023-04-09T06:33:25.899Z,8.07
2023-04-09T06:35:52.639Z,8.09
2023-04-09T06:38:19.474Z,8.10
2023-04-09T06:40:47.561Z,8.14
2023-04-09T06:43:14.433Z,8.13
2023-04-09T06:45:49.051Z,8.13
2023-04-09T06:48:15.835Z,8.11
2023-04-09T06:50:42.590Z,8.12
2023-04-09T06:53:09.316Z,8.11
2023-04-09T06:55:36.161Z,8.10
2023-04-09T06:58:04.255Z,8.11
2023-04-09T07:00:31.036Z,8.11
2023-04-09T07:02:57.830Z,8.14
2023-04-09T07:05:24.732Z,8.18
2023-04-09T07:07:51.451Z,8.17
2023-04-09T07:10:18.426Z,8.23
2023-04-09T07:12:45.157Z,8.24
2023-04-09T07:15:13.429Z,8.28
2023-04-09T07:17:41.510Z,8.29
2023-04-09T07:20:09.493Z,8.29
2023-04-09T07:22:36.643Z,8.30
2023-04-09T07:25:04.358Z,8.31
2023-04-09T07:27:31.240Z,8.31
2023-04-09T07:29:58.917Z,8.36
2023-04-09T07:32:28.114Z,8.35
2023-04-09T07:34:55.817Z,8.30
2023-04-09T07:37:23.258Z,8.32
2023-04-09T07:39:51.763Z,8.28
2023-04-09T07:42:18.875Z,8.29
2023-04-09T07:44:45.622Z,8.34
2023-04-09T07:47:12.569Z,8.31
2023-04-09T07:49:40.840Z,8.34
2023-04-09T07:52:07.768Z,8.38
2023-04-09T07:54:35.162Z,8.37
2023-04-09T07:57:02.505Z,8.37
2023-04-09T07:59:29.357Z,8.24
2023-04-09T08:01:56.348Z,8.29
2023-04-09T08:04:23.414Z,8.35
2023-04-09T08:06:51.653Z,8.38
2023-04-09T08:09:18.823Z,8.37
2023-04-09T08:11:46.228Z,8.37
2023-04-09T08:14:13.680Z,8.45
2023-04-09T08:16:40.958Z,8.44
2023-04-09T08:19:07.803Z,8.41
2023-04-09T08:21:34.680Z,8.36
2023-04-09T08:24:03.317Z,8.34
2023-04-09T08:26:30.264Z,8.39
2023-04-09T08:28:57.312Z,8.45
2023-04-09T08:31:24.212Z,8.43
2023-04-09T08:33:51.228Z,8.39
2023-04-09T08:36:18.150Z,8.49
2023-04-09T08:38:45.072Z,8.50
2023-04-09T08:41:19.772Z,8.52
2023-04-09T08:46:20.122Z,8.52
2023-04-09T08:48:48.931Z,8.58
2023-04-09T08:51:16.264Z,8.60
2023-04-09T08:53:45.608Z,8.59
2023-04-09T08:56:12.311Z,8.65
2023-04-09T08:58:42.924Z,8.63
2023-04-09T09:01:19.265Z,8.64
2023-04-09T09:03:54.758Z,8.67
2023-04-09T09:06:21.842Z,8.68
2023-04-09T09:09:00.238Z,8.76
2023-04-09T09:11:26.994Z,8.86
2023-04-09T09:14:00.081Z,8.93
2023-04-09T09:16:27.061Z,8.91
2023-04-09T09:18:54.675Z,9.02
2023-04-09T09:21:21.761Z,9.09
2023-04-09T09:23:48.624Z,9.25
2023-04-09T09:26:16.640Z,9.32
2023-04-09T09:28:43.586Z,9.35
2023-04-09T09:31:12.820Z,9.29
2023-04-09T09:33:39.957Z,9.29
2023-04-09T09:36:07.340Z,9.36
2023-04-09T09:38:34.266Z,9.32
2023-04-09T09:41:16.808Z,9.39
2023-04-09T09:43:43.698Z,9.40
2023-04-09T09:46:12.244Z,9.37
2023-04-09T09:48:39.991Z,9.34
2023-04-09T09:51:09.781Z,9.32
2023-04-09T09:53:37.323Z,9.39
2023-04-09T09:56:05.964Z,9.53
2023-04-09T09:58:37.889Z,9.76
2023-04-09T10:01:08.314Z,9.91
2023-04-09T10:03:39.607Z,9.95
2023-04-09T10:06:07.000Z,9.91
2023-04-09T10:08:35.078Z,10.10
2023-04-09T10:11:02.203Z,10.38
2023-04-09T10:13:31.784Z,10.74
2023-04-09T10:15:58.938Z,11.10
2023-04-09T10:18:26.193Z,11.15
2023-04-09T10:20:58.648Z,10.95
2023-04-09T10:23:33.949Z,10.98
2023-04-09T10:26:00.726Z,10.86
2023-04-09T10:28:27.410Z,11.08
2023-04-09T10:30:54.112Z,11.11
2023-04-09T10:33:23.730Z,11.19
2023-04-09T10:35:50.292Z,11.42
2023-04-09T10:38:33.667Z,11.56
2023-04-09T10:41:07.279Z,11.76
2023-04-09T10:43:35.827Z,11.70
2023-04-09T10:46:05.198Z,11.61
2023-04-09T10:48:33.572Z,11.41
2023-04-09T10:51:02.862Z,11.31
2023-04-09T10:53:32.466Z,11.49
2023-04-09T10:55:59.360Z,11.80
2023-04-09T10:58:26.089Z,11.77
2023-04-09T11:00:54.106Z,11.75
2023-04-09T11:03:22.974Z,11.89
2023-04-09T11:05:52.724Z,11.76
2023-04-09T11:08:19.746Z,11.87
2023-04-09T11:10:49.905Z,12.59
2023-04-09T11:13:18.824Z,12.36
2023-04-09T11:15:45.877Z,12.60
2023-04-09T11:18:19.739Z,12.86
2023-04-09T11:20:46.578Z,13.20
2023-04-09T11:23:13.736Z,12.78
2023-04-09T11:25:40.468Z,12.38
2023-04-09T11:28:09.617Z,12.14
2023-04-09T11:30:36.526Z,11.88
2023-04-09T11:33:03.943Z,11.62
2023-04-09T11:35:30.732Z,11.49
2023-04-09T11:37:57.681Z,11.94
2023-04-09T11:40:26.527Z,12.25
2023-04-09T11:42:54.656Z,13.04
2023-04-09T11:45:24.830Z,13.25
2023-04-09T11:47:52.060Z,13.10
2023-04-09T11:50:19.672Z,13.56
2023-04-09T11:52:46.844Z,14.13
2023-04-09T11:55:23.796Z,13.44
2023-04-09T11:57:54.529Z,13.81
2023-04-09T12:00:22.689Z,13.78
2023-04-09T12:02:50.242Z,13.64
2023-04-09T12:05:25.614Z,14.61
2023-04-09T12:07:57.177Z,14.06
2023-04-09T12:10:27.446Z,14.14
2023-04-09T12:12:54.181Z,14.31
2023-04-09T12:15:23.415Z,14.90
2023-04-09T12:17:51.853Z,14.72
2023-04-09T12:20:33.657Z,15.39
2023-04-09T12:23:02.133Z,15.14
2023-04-09T12:25:29.282Z,14.85
2023-04-09T12:27:56.556Z,14.29
2023-04-09T12:30:25.167Z,14.32
2023-04-09T12:32:52.859Z,14.61
2023-04-09T12:35:20.026Z,14.91
2023-04-09T12:37:46.804Z,15.22
2023-04-09T12:40:13.747Z,15.37
2023-04-09T12:42:40.771Z,14.87
2023-04-09T12:45:08.868Z,15.12
2023-04-09T12:47:37.198Z,14.64
2023-04-09T12:50:04.075Z,13.98
2023-04-09T12:52:30.819Z,13.61
2023-04-09T12:54:57.566Z,13.71
2023-04-09T12:57:24.362Z,13.58
2023-04-09T12:59:51.071Z,13.76
2023-04-09T13:02:18.173Z,13.53
2023-04-09T13:04:46.543Z,13.77
2023-04-09T13:07:14.234Z,14.01
2023-04-09T13:09:41.110Z,14.31
2023-04-09T13:12:07.969Z,14.14
2023-04-09T13:14:34.724Z,14.29
2023-04-09T13:17:01.561Z,14.26
2023-04-09T13:19:28.297Z,14.24
2023-04-09T13:21:56.416Z,14.08
2023-04-09T13:24:23.140Z,14.20
2023-04-09T13:26:50.310Z,13.94
2023-04-09T13:29:17.124Z,13.43
2023-04-09T13:31:44.069Z,13.12
2023-04-09T13:34:10.861Z,13.85
2023-04-09T13:36:37.639Z,13.93
2023-04-09T13:39:05.790Z,13.84
2023-04-09T13:41:32.937Z,13.79
2023-04-09T13:44:00.190Z,14.08
2023-04-09T13:46:27.138Z,14.26
2023-04-09T13:48:54.455Z,14.37
2023-04-09T13:51:21.550Z,14.38
2023-04-09T13:53:48.422Z,14.48
2023-04-09T13:56:16.918Z,14.28
2023-04-09T13:58:43.703Z,14.03
2023-04-09T14:01:10.803Z,14.02
2023-04-09T14:03:37.802Z,13.90
2023-04-09T14:06:05.094Z,13.63
2023-04-09T14:08:31.939Z,13.57
2023-04-09T14:10:58.718Z,13.70
2023-04-09T14:13:26.788Z,13.89
2023-04-09T14:15:53.578Z,13.66
2023-04-09T14:18:20.374Z,13.59
2023-04-09T14:20:47.253Z,13.73
2023-04-09T14:23:14.115Z,14.07
2023-04-09T14:25:40.831Z,14.13
2023-04-09T14:28:07.721Z,14.22
2023-04-09T14:30:35.853Z,14.20
2023-04-09T14:33:02.711Z,14.11
2023-04-09T14:35:29.486Z,14.09
2023-04-09T14:37:56.292Z,14.12
2023-04-09T14:40:23.124Z,14.21
2023-04-09T14:42:49.820Z,14.26
2023-04-09T14:45:16.560Z,14.27
2023-04-09T14:47:44.821Z,14.42
2023-04-09T14:50:11.555Z,14.50
2023-04-09T14:52:38.496Z,14.31
2023-04-09T14:55:06.233Z,14.35
2023-04-09T14:57:33.091Z,14.43
2023-04-09T14:59:59.924Z,14.24
2023-04-09T15:02:26.876Z,13.93
2023-04-09T15:04:55.095Z,13.88
2023-04-09T15:07:24.992Z,14.04
2023-04-09T15:09:52.064Z,14.04
2023-04-09T15:12:18.974Z,13.97
2023-04-09T15:14:45.755Z,13.90
2023-04-09T15:17:12.513Z,13.92
2023-04-09T15:19:39.277Z,13.82
2023-04-09T15:22:07.402Z,13.99
2023-04-09T15:24:34.352Z,14.06
2023-04-09T15:27:01.179Z,14.24
2023-04-09T15:29:27.968Z,14.39
2023-04-09T15:31:54.696Z,14.42
2023-04-09T15:34:21.475Z,14.56
2023-04-09T15:36:48.178Z,14.65
2023-04-09T15:39:16.642Z,14.60
2023-04-09T15:41:43.392Z,14.51
2023-04-09T15:44:10.231Z,14.43
2023-04-09T15:46:38.433Z,14.37
2023-04-09T15:49:05.510Z,14.43
2023-04-09T15:51:32.344Z,14.41
2023-04-09T15:53:59.478Z,14.39
2023-04-09T15:56:27.551Z,14.44
2023-04-09T15:58:54.436Z,14.54
2023-04-09T16:01:21.398Z,14.32
2023-04-09T16:03:48.208Z,14.27
2023-04-09T16:06:15.007Z,14.28
2023-04-09T16:08:41.891Z,14.26
2023-04-09T16:11:08.988Z,14.27
2023-04-09T16:13:37.248Z,14.22
2023-04-09T16:16:04.393Z,14.19
2023-04-09T16:18:31.149Z,14.18
2023-04-09T16:20:58.029Z,14.21
2023-04-09T16:23:26.404Z,14.25
2023-04-09T16:25:53.771Z,14.15
2023-04-09T16:28:21.220Z,14.19
2023-04-09T16:30:50.026Z,14.08
2023-04-09T16:33:16.916Z,13.95
2023-04-09T16:35:43.792Z,13.91
2023-04-09T16:38:10.761Z,13.82
2023-04-09T16:40:38.051Z,13.72
2023-04-09T16:43:05.261Z,13.68
2023-04-09T16:45:32.063Z,13.50
2023-04-09T16:48:00.207Z,13.46
2023-04-09T16:50:27.170Z,13.42
2023-04-09T16:52:53.887Z,13.37
2023-04-09T16:55:20.609Z,13.32
2023-04-09T16:57:47.398Z,13.32
2023-04-09T17:00:15.293Z,13.36
2023-04-09T17:02:42.106Z,13.38
2023-04-09T17:05:10.868Z,13.39
2023-04-09T17:07:37.568Z,13.40
2023-04-09T17:10:05.115Z,13.49
2023-04-09T17:12:31.964Z,13.52
2023-04-09T17:14:59.213Z,13.59
2023-04-09T17:17:25.984Z,13.60
2023-04-09T17:19:52.729Z,13.36
2023-04-09T17:22:20.858Z,13.00
2023-04-09T17:24:47.587Z,12.76
2023-04-09T17:27:14.298Z,12.59
2023-04-09T17:29:41.067Z,12.44
2023-04-09T17:32:07.783Z,12.39
2023-04-09T17:34:34.510Z,12.22
2023-04-09T17:37:01.375Z,12.13
2023-04-09T17:39:29.568Z,12.02
2023-04-09T17:41:56.363Z,11.94
2023-04-09T17:44:23.476Z,11.86
2023-04-09T17:46:50.232Z,11.77
2023-04-09T17:49:17.215Z,11.67
2023-04-09T17:51:44.114Z,11.56
2023-04-09T17:54:10.875Z,11.44
2023-04-09T17:56:39.112Z,11.33
2023-04-09T17:59:06.020Z,11.19
2023-04-09T18:01:33.021Z,11.02
2023-04-09T18:04:00.684Z,10.91
2023-04-09T18:06:27.770Z,10.75
2023-04-09T18:08:54.569Z,10.63
2023-04-09T18:11:21.283Z,10.52
2023-04-09T18:13:49.486Z,10.41
2023-04-09T18:16:16.299Z,10.34
2023-04-09T18:18:43.305Z,10.22
2023-04-09T18:21:09.966Z,10.17
2023-04-09T18:23:37.224Z,10.09
2023-04-09T18:26:04.226Z,9.93
2023-04-09T18:28:31.182Z,9.85
2023-04-09T18:30:59.340Z,9.81
2023-04-09T18:33:26.105Z,9.65
2023-04-09T18:35:52.919Z,9.48
2023-04-09T18:38:19.705Z,9.39
2023-04-09T18:40:46.402Z,9.27
2023-04-09T18:43:13.122Z,9.16
2023-04-09T18:45:39.832Z,9.07
2023-04-09T18:48:08.081Z,9.00
2023-04-09T18:50:34.918Z,8.93
2023-04-09T18:53:01.676Z,8.94
2023-04-09T18:55:28.378Z,8.98
2023-04-09T18:57:55.105Z,8.94
2023-04-09T19:00:21.758Z,8.88
2023-04-09T19:02:48.623Z,8.81
2023-04-09T19:05:17.039Z,8.72
2023-04-09T19:07:43.778Z,8.68
2023-04-09T19:10:10.767Z,8.64
2023-04-09T19:12:37.915Z,8.55
2023-04-09T19:15:05.110Z,8.58
2023-04-09T19:17:31.972Z,8.59
2023-04-09T19:19:58.806Z,8.58
2023-04-09T19:22:26.891Z,8.55
2023-04-09T19:24:53.616Z,8.58
2023-04-09T19:27:20.359Z,8.61
2023-04-09T19:29:47.175Z,8.64
2023-04-09T19:32:13.947Z,8.60
2023-04-09T19:34:40.750Z,8.59
2023-04-09T19:37:07.557Z,8.52
2023-04-09T19:39:35.706Z,8.43
2023-04-09T19:42:02.450Z,8.34
2023-04-09T19:44:29.202Z,8.29
2023-04-09T19:46:55.863Z,8.23
2023-04-09T19:49:22.714Z,8.16
2023-04-09T19:51:49.541Z,8.14
2023-04-09T19:54:16.253Z,8.15
2023-04-09T19:56:44.413Z,8.13
2023-04-09T19:59:11.135Z,8.21
2023-04-09T20:01:37.977Z,8.23
2023-04-09T20:04:05.093Z,8.18
2023-04-09T20:06:32.656Z,8.16
2023-04-09T20:08:59.403Z,8.15
2023-04-09T20:11:26.115Z,8.14
2023-04-09T20:13:54.192Z,8.07
2023-04-09T20:16:20.909Z,8.00
2023-04-09T20:18:47.706Z,7.95
2023-04-09T20:21:14.641Z,7.86
2023-04-09T20:23:41.463Z,7.68
2023-04-09T20:26:08.544Z,7.56
2023-04-09T20:28:35.445Z,7.48
2023-04-09T20:31:04.432Z,7.48
2023-04-09T20:33:31.199Z,7.47
2023-04-09T20:35:58.202Z,7.50
2023-04-09T20:38:25.384Z,7.51
2023-04-09T20:40:52.193Z,7.50
2023-04-09T20:43:19.027Z,7.48
2023-04-09T20:45:46.066Z,7.46
2023-04-09T20:48:14.185Z,7.52
2023-04-09T20:50:40.853Z,7.53
2023-04-09T20:53:08.014Z,7.56
2023-04-09T20:55:35.344Z,7.63
2023-04-09T20:58:02.153Z,7.65
2023-04-09T21:00:28.947Z,7.63
2023-04-09T21:02:55.804Z,7.58
2023-04-09T21:05:24.471Z,7.52
2023-04-09T21:07:51.464Z,7.50
2023-04-09T21:10:18.176Z,7.44
2023-04-09T21:12:44.879Z,7.40
2023-04-09T21:15:11.719Z,7.37
2023-04-09T21:17:38.548Z,7.34
2023-04-09T21:20:06.427Z,7.31
2023-04-09T21:22:35.340Z,7.32
2023-04-09T21:25:02.169Z,7.34
2023-04-09T21:27:28.981Z,7.38
2023-04-09T21:29:55.725Z,7.40
2023-04-09T21:32:22.493Z,7.39
2023-04-09T21:34:49.626Z,7.30
2023-04-09T21:37:16.357Z,7.35
2023-04-09T21:39:44.458Z,7.37
2023-04-09T21:42:11.168Z,7.42
2023-04-09T21:44:38.056Z,7.44
2023-04-09T21:47:04.785Z,7.39
2023-04-09T21:49:31.571Z,7.35
2023-04-09T21:51:58.339Z,7.29
2023-04-09T21:54:25.031Z,7.23
2023-04-09T21:56:53.106Z,7.21
2023-04-09T21:59:20.045Z,7.18
2023-04-09T22:01:49.927Z,7.16
2023-04-09T22:04:16.824Z,7.10
2023-04-09T22:06:45.255Z,7.07
2023-04-09T22:09:11.953Z,7.04
2023-04-09T22:11:38.615Z,7.02
2023-04-09T22:14:07.020Z,6.99
2023-04-09T22:16:33.775Z,6.98
2023-04-09T22:19:00.707Z,6.95
2023-04-09T22:21:27.686Z,6.91
2023-04-09T22:23:54.421Z,6.90
2023-04-09T22:26:21.058Z,6.95
2023-04-09T22:28:47.739Z,6.94
2023-04-09T22:31:16.198Z,6.95
2023-04-09T22:33:43.006Z,6.97
2023-04-09T22:36:09.674Z,7.01
2023-04-09T22:38:36.521Z,7.01
2023-04-09T22:41:03.308Z,7.05
2023-04-09T22:43:30.124Z,7.12
2023-04-09T22:45:56.881Z,7.19
2023-04-09T22:48:24.960Z,7.26
2023-04-09T22:50:51.716Z,7.31
2023-04-09T22:53:18.483Z,7.29
2023-04-09T22:55:45.957Z,7.29
2023-04-09T22:58:12.914Z,7.26
2023-04-09T23:00:39.638Z,7.24
2023-04-09T23:03:06.476Z,7.28
2023-04-09T23:05:34.909Z,7.28
2023-04-09T23:08:01.654Z,7.21
2023-04-09T23:10:28.437Z,7.20
2023-04-09T23:12:55.146Z,7.17
2023-04-09T23:15:21.839Z,7.15
2023-04-09T23:17:48.603Z,7.12
2023-04-09T23:20:15.368Z,7.09
2023-04-09T23:22:45.245Z,7.06
2023-04-09T23:25:12.064Z,7.05
2023-04-09T23:27:38.801Z,7.05
2023-04-09T23:30:06.807Z,7.00
2023-04-09T23:32:33.692Z,6.98
2023-04-09T23:35:00.685Z,7.01
2023-04-09T23:37:27.950Z,6.97
2023-04-09T23:39:55.976Z,6.93
2023-04-09T23:42:22.705Z,6.86
2023-04-09T23:44:49.352Z,6.80
2023-04-09T23:47:16.464Z,6.72
2023-04-09T23:49:43.298Z,6.66
2023-04-09T23:52:10.043Z,6.60
2023-04-09T23:54:36.751Z,6.61
2023-04-09T23:57:04.987Z,6.59
2023-04-09T23:59:31.692Z,6.55
